Market Rasen, United Kingdom
Current Conditions -  °F | °C
As of 1:50 PM on Thursday 30 Oct 2014 (Local Time) from EGXP Reporting Station
Broken Clouds Broken Clouds  
Wind Chill: 17°   Ceiling: 3800
Heat Index: 17°   Visibility: 6mi
Dew Point: 15°   Wind: 8mph
Humidity: 88%   Direction: 220°SW
Pressure: 30"   Gusts: NA
Location:  53.39°N, 0.34°W
Report Text: EGXP 301350Z 22007KT 9999 BKN038 17/15 Q1016 BLU
Loading
Personal Weather Stations






























Interactive Weather Map
Tropical Storm Tracking
New forecast layout! Learn more

10-Day Weather Forecast

Advertisements
Track Severe Weather on mobile